Time;durP1;ratioP1;P1;durP2;ratioP2;P2;SDS_P1;SDS_P2;PMS_P1;PMS_P2;Temp;Humidity;BMP_temperature;BMP_pressure;BME280_temperature;BME280_humidity;BME280_pressure;Samples;Min_cycle;Max_cycle;Signal;HPM_P1;HPM_P2
2023/04/11 00:01:21;;;;;;;;;1.00;0.00;;;;;12.83;63.08;101075.41;5012463;28;45636;-61
2023/04/11 00:03:46;;;;;;;;;6.67;1.00;;;;;12.77;62.92;101084.25;5015799;28;45373;-62
2023/04/11 00:06:11;;;;;;;;;0.00;0.00;;;;;12.71;63.20;101084.09;5015722;28;45789;-61
2023/04/11 00:08:36;;;;;;;;;0.67;0.67;;;;;12.70;63.11;101093.00;5016341;28;46799;-62
2023/04/11 00:11:02;;;;;;;;;2.00;0.00;;;;;12.62;63.16;101078.50;5016753;28;45411;-62
2023/04/11 00:13:27;;;;;;;;;1.00;1.00;;;;;12.57;61.71;101086.44;5013337;28;46584;-62
2023/04/11 00:15:54;;;;;;;;;3.00;1.00;;;;;12.56;62.58;101094.47;5016096;28;45370;-61
2023/04/11 00:18:20;;;;;;;;;1.00;1.00;;;;;12.46;62.55;101080.84;5016026;28;45714;-61
2023/04/11 00:20:45;;;;;;;;;4.00;1.00;;;;;12.35;61.98;101069.84;5016352;28;45669;-61
2023/04/11 00:23:11;;;;;;;;;1.33;0.00;;;;;12.49;61.33;101102.34;5004131;28;45411;-61
2023/04/11 00:25:36;;;;;;;;;3.00;0.00;;;;;12.47;61.55;101100.50;5016042;28;45434;-61
2023/04/11 00:28:02;;;;;;;;;1.00;0.00;;;;;12.44;61.28;101098.66;5016081;28;45423;-62
2023/04/11 00:30:27;;;;;;;;;4.00;0.67;;;;;12.43;61.04;101098.63;5014746;28;45659;-62
2023/04/11 00:32:53;;;;;;;;;1.00;1.00;;;;;12.31;61.07;101072.44;5016185;28;46754;-62
2023/04/11 00:35:18;;;;;;;;;2.00;0.00;;;;;12.23;61.06;101082.94;5016400;28;45510;-62
2023/04/11 00:37:44;;;;;;;;;1.00;1.00;;;;;12.25;61.45;101089.25;5015824;28;45669;-62
2023/04/11 00:40:11;;;;;;;;;1.67;1.00;;;;;12.19;61.22;101106.94;5016321;28;45774;-61
2023/04/11 00:42:38;;;;;;;;;3.50;1.25;;;;;12.13;60.90;101097.00;5015517;28;46372;-63
2023/04/11 00:45:03;;;;;;;;;0.00;0.00;;;;;12.15;60.87;101112.22;5014694;28;45445;-62
2023/04/11 00:47:31;;;;;;;;;4.00;0.00;;;;;12.04;60.61;101094.97;5015753;28;45557;-61
2023/04/11 00:49:57;;;;;;;;;3.33;1.00;;;;;12.09;60.67;101101.38;5015979;28;45430;-62
2023/04/11 00:52:22;;;;;;;;;0.00;0.00;;;;;12.09;60.57;101111.16;5015512;28;46309;-62
2023/04/11 00:54:48;;;;;;;;;7.00;1.00;;;;;12.01;60.22;101097.59;5015689;28;45489;-61
2023/04/11 00:57:14;;;;;;;;;2.67;0.00;;;;;12.04;60.48;101096.75;5015631;28;45765;-61
2023/04/11 00:59:41;;;;;;;;;3.00;0.00;;;;;12.04;60.09;101112.81;5016168;28;45657;-60
2023/04/11 01:02:07;;;;;;;;;2.25;0.75;;;;;12.00;60.23;101113.59;5009848;28;45476;-62
2023/04/11 01:04:32;;;;;;;;;5.00;1.00;;;;;11.94;60.03;101120.59;5014638;28;45413;-61
2023/04/11 01:07:06;;;;;;;;;5.67;1.00;;;;;11.94;60.22;101117.00;5001008;28;45451;-61
2023/04/11 01:09:33;;;;;;;;;2.67;0.00;;;;;11.92;60.87;101108.03;4998286;28;45677;-61
2023/04/11 01:12:00;;;;;;;;;3.75;0.75;;;;;11.89;60.45;101111.50;5012788;28;46427;-60
2023/04/11 01:14:26;;;;;;;;;0.75;0.00;;;;;11.77;59.84;101087.97;5007971;28;46119;-61
2023/04/11 01:16:51;;;;;;;;;1.67;0.00;;;;;11.89;60.39;101103.47;5015074;28;45399;-61
2023/04/11 01:19:19;;;;;;;;;0.67;0.67;;;;;11.84;59.69;101109.56;5013640;28;45546;-62
2023/04/11 01:21:46;;;;;;;;;1.00;1.00;;;;;11.83;59.90;101135.44;5014818;28;46190;-62
2023/04/11 01:24:12;;;;;;;;;3.00;0.00;;;;;11.82;60.02;101138.97;5014886;28;45527;-61
2023/04/11 01:26:37;;;;;;;;;0.00;0.00;;;;;11.80;59.54;101141.59;5014746;28;45483;-62
2023/04/11 01:29:03;;;;;;;;;1.33;0.00;;;;;11.76;60.13;101133.44;5002891;28;45312;-61
2023/04/11 01:31:28;;;;;;;;;1.33;0.00;;;;;11.74;59.23;101119.13;5014636;28;45473;-61
2023/04/11 01:33:54;;;;;;;;;1.00;1.00;;;;;11.78;60.03;101121.03;5016212;28;45419;-62
2023/04/11 01:36:20;;;;;;;;;2.33;0.67;;;;;11.77;59.68;101121.88;5013571;28;45690;-62
2023/04/11 01:38:45;;;;;;;;;1.00;0.00;;;;;11.73;59.80;101123.56;5014671;28;46077;-60
2023/04/11 01:41:12;;;;;;;;;1.00;1.00;;;;;11.82;59.32;101135.41;5015116;28;45417;-60
2023/04/11 01:43:37;;;;;;;;;4.00;1.00;;;;;11.88;59.80;101138.22;5013572;28;45616;-62
2023/04/11 01:46:03;;;;;;;;;0.25;0.25;;;;;11.89;59.82;101142.72;5015454;28;45414;-61
2023/04/11 01:48:28;;;;;;;;;2.00;1.00;;;;;11.84;59.70;101150.63;5013534;28;45483;-61
2023/04/11 01:50:55;;;;;;;;;0.67;0.33;;;;;11.79;59.07;101147.81;5012626;28;46647;-60
2023/04/11 01:53:20;;;;;;;;;2.25;0.00;;;;;11.74;59.99;101138.75;5014160;28;45532;-61
2023/04/11 01:55:45;;;;;;;;;2.33;0.00;;;;;11.86;60.11;101167.63;5013329;28;45598;-61
2023/04/11 01:58:11;;;;;;;;;1.00;0.33;;;;;11.81;60.18;101161.25;5014730;28;45426;-61
2023/04/11 02:00:36;;;;;;;;;2.00;1.00;;;;;11.85;59.60;101152.44;5013920;28;46570;-63
2023/04/11 02:03:02;;;;;;;;;3.33;0.33;;;;;11.91;59.20;101165.09;5014627;28;45880;-62
2023/04/11 02:05:27;;;;;;;;;0.33;0.00;;;;;11.91;59.45;101175.78;4997914;28;45555;-62
2023/04/11 02:07:53;;;;;;;;;2.00;0.67;;;;;11.87;59.87;101163.19;5013255;28;45528;-61
2023/04/11 02:10:18;;;;;;;;;2.25;1.25;;;;;11.86;59.66;101175.66;5014585;28;46450;-61
2023/04/11 02:12:43;;;;;;;;;0.75;0.75;;;;;11.82;59.84;101170.19;5014205;28;45415;-61
2023/04/11 02:15:09;;;;;;;;;2.67;0.67;;;;;11.81;60.21;101174.63;5014371;28;45531;-62
2023/04/11 02:17:35;;;;;;;;;4.67;1.33;;;;;11.82;59.45;101172.88;5014743;28;45340;-61
2023/04/11 02:20:01;;;;;;;;;1.00;1.00;;;;;11.69;59.60;101161.81;5013916;28;45562;-63
2023/04/11 02:22:26;;;;;;;;;3.33;2.00;;;;;11.56;60.34;101151.63;5016109;28;45390;-60
2023/04/11 02:24:52;;;;;;;;;0.00;0.00;;;;;11.55;60.05;101171.19;5014851;28;45425;-61
2023/04/11 02:27:17;;;;;;;;;2.00;0.00;;;;;11.57;60.69;101164.16;5015066;28;45279;-61
2023/04/11 02:29:43;;;;;;;;;0.75;0.00;;;;;11.56;60.54;101157.88;5014976;28;45350;-63
2023/04/11 02:32:08;;;;;;;;;2.33;0.67;;;;;11.43;60.48;101137.91;5015391;28;45457;-62
2023/04/11 02:34:33;;;;;;;;;0.75;0.50;;;;;11.55;60.44;101172.13;5015093;28;45529;-63
2023/04/11 02:36:59;;;;;;;;;3.00;0.00;;;;;11.60;61.11;101170.50;5016197;28;45418;-62
2023/04/11 02:39:25;;;;;;;;;0.00;0.00;;;;;11.61;60.71;101171.38;5014080;28;45671;-62
2023/04/11 02:41:50;;;;;;;;;1.50;0.50;;;;;11.58;60.66;101176.66;5016984;28;45508;-62
2023/04/11 02:44:18;;;;;;;;;3.00;1.00;;;;;11.45;60.56;101151.31;5015727;28;45310;-62
2023/04/11 02:46:43;;;;;;;;;1.75;0.50;;;;;11.53;61.18;101179.22;5014791;28;45435;-62
2023/04/11 02:49:09;;;;;;;;;1.00;1.00;;;;;11.40;61.03;101156.53;4999091;28;52701;-60
2023/04/11 02:51:34;;;;;;;;;3.25;2.00;;;;;11.53;61.26;101162.22;5014220;28;45933;-61
2023/04/11 02:54:00;;;;;;;;;4.00;1.25;;;;;11.46;61.45;101158.47;5013296;28;45570;-61
2023/04/11 02:56:25;;;;;;;;;1.00;0.00;;;;;11.57;61.32;101170.41;5012160;28;45584;-61
2023/04/11 02:58:51;;;;;;;;;2.00;1.00;;;;;11.43;60.96;101139.66;5013755;28;45555;-62
2023/04/11 03:01:20;;;;;;;;;2.67;1.00;;;;;11.50;61.43;101165.75;5014670;28;45615;-61
2023/04/11 03:03:45;;;;;;;;;2.00;0.00;;;;;11.46;61.67;101162.94;5012700;28;45538;-61
2023/04/11 03:06:11;;;;;;;;;3.00;1.00;;;;;11.41;61.32;101163.69;5014094;28;45658;-60
2023/04/11 03:08:36;;;;;;;;;3.33;1.00;;;;;11.44;61.92;101174.47;5013582;28;45602;-61
2023/04/11 03:11:02;;;;;;;;;5.00;1.00;;;;;11.50;62.15;101187.16;5012479;28;54340;-62
2023/04/11 03:13:28;;;;;;;;;2.33;1.00;;;;;11.49;62.23;101192.44;5012437;28;45558;-62
2023/04/11 03:15:54;;;;;;;;;2.33;1.00;;;;;11.49;62.32;101190.66;5007870;28;45639;-61
2023/04/11 03:18:21;;;;;;;;;3.00;1.00;;;;;11.43;62.02;101191.41;5013960;28;46274;-61
2023/04/11 03:20:47;;;;;;;;;2.67;1.00;;;;;11.43;61.76;101188.75;5015459;28;45527;-60
2023/04/11 03:23:12;;;;;;;;;1.75;1.00;;;;;11.37;61.91;101184.97;5014455;28;45447;-61
2023/04/11 03:25:37;;;;;;;;;1.50;0.00;;;;;11.40;62.48;101188.63;5015908;28;45764;-62
2023/04/11 03:28:03;;;;;;;;;1.00;0.50;;;;;11.42;62.64;101200.28;5012967;28;46251;-61
2023/04/11 03:30:29;;;;;;;;;0.00;0.00;;;;;11.44;62.71;101203.91;5012330;28;45629;-61
2023/04/11 03:32:54;;;;;;;;;2.75;1.50;;;;;11.38;62.85;101200.16;5010392;28;45608;-61
2023/04/11 03:35:20;;;;;;;;;1.50;1.00;;;;;11.40;62.38;101194.00;5009006;28;45493;-61
2023/04/11 03:37:46;;;;;;;;;3.00;1.25;;;;;11.43;62.82;101204.78;5013160;28;46123;-60
2023/04/11 03:40:12;;;;;;;;;2.00;0.33;;;;;11.40;62.31;101196.66;5011631;28;45354;-62
2023/04/11 03:42:37;;;;;;;;;3.75;1.00;;;;;11.52;62.60;101209.50;5013342;28;45440;-61
2023/04/11 03:45:03;;;;;;;;;3.75;2.00;;;;;11.54;62.66;101213.13;5012904;28;45443;-62
2023/04/11 03:47:29;;;;;;;;;1.33;1.00;;;;;11.42;62.00;101196.72;5013325;28;46525;-63
2023/04/11 03:49:54;;;;;;;;;1.00;0.00;;;;;11.56;62.42;101208.72;5013040;28;45366;-62
2023/04/11 03:52:19;;;;;;;;;2.50;1.00;;;;;11.60;62.79;101216.00;5013246;28;48719;-61
2023/04/11 03:54:45;;;;;;;;;0.00;0.00;;;;;11.60;62.04;101212.41;5014226;28;45436;-61
2023/04/11 03:57:10;;;;;;;;;3.75;1.75;;;;;11.61;62.41;101217.81;5013419;28;45591;-61
2023/04/11 03:59:36;;;;;;;;;5.25;2.00;;;;;11.57;62.54;101204.28;5013219;28;45420;-61
2023/04/11 04:02:01;;;;;;;;;0.75;0.75;;;;;11.53;61.45;101194.34;5012744;28;45478;-61
2023/04/11 04:04:27;;;;;;;;;1.00;0.50;;;;;11.61;62.38;101216.88;5014327;28;45587;-62
2023/04/11 04:06:55;;;;;;;;;5.25;1.50;;;;;11.60;62.08;101217.78;5021399;28;45474;-62
2023/04/11 04:09:22;;;;;;;;;1.75;1.00;;;;;11.60;62.22;101231.16;5018126;28;45506;-61
2023/04/11 04:11:47;;;;;;;;;2.00;0.00;;;;;11.62;62.31;101221.38;5016862;28;45502;-61
2023/04/11 04:14:12;;;;;;;;;0.75;0.75;;;;;11.62;62.58;101208.00;5016953;28;45531;-62
2023/04/11 04:16:38;;;;;;;;;0.00;0.00;;;;;11.62;61.80;101211.59;5015852;28;46168;-62
2023/04/11 04:19:03;;;;;;;;;4.67;1.00;;;;;11.61;61.66;101215.13;5005028;28;46074;-61
2023/04/11 04:21:31;;;;;;;;;2.50;1.00;;;;;11.63;61.76;101223.19;5016749;28;45343;-61
2023/04/11 04:23:56;;;;;;;;;6.50;3.00;;;;;11.49;62.48;101203.16;5016695;28;45475;-61
2023/04/11 04:26:23;;;;;;;;;1.00;1.00;;;;;11.61;62.29;101220.50;5015800;28;45906;-62
2023/04/11 04:28:49;;;;;;;;;1.75;1.00;;;;;11.61;61.90;101219.56;5016149;28;45442;-61
2023/04/11 04:31:20;;;;;;;;;1.25;1.00;;;;;11.54;61.60;101212.22;5015948;28;45386;-62
2023/04/11 04:33:48;;;;;;;;;2.00;0.00;;;;;11.57;62.07;101221.25;5016601;28;45535;-62
2023/04/11 04:36:16;;;;;;;;;1.00;0.33;;;;;11.49;61.75;101212.09;5014603;28;45355;-61
2023/04/11 04:38:43;;;;;;;;;2.50;1.00;;;;;11.66;61.50;101231.31;5016203;28;45380;-62
2023/04/11 04:41:14;;;;;;;;;3.50;3.25;;;;;11.68;62.43;101221.56;5015862;28;45640;-62
2023/04/11 04:43:43;;;;;;;;;3.25;0.50;;;;;11.75;62.29;101220.88;5016299;28;45480;-61
2023/04/11 04:46:08;;;;;;;;;3.25;1.00;;;;;11.66;61.63;101222.38;5015875;28;45688;-62
2023/04/11 04:48:34;;;;;;;;;2.00;2.00;;;;;11.70;62.37;101229.66;5015713;28;45428;-63
2023/04/11 04:50:59;;;;;;;;;5.00;1.67;;;;;11.74;62.37;101235.13;5004779;28;45578;-62
2023/04/11 04:53:24;;;;;;;;;0.75;0.25;;;;;11.72;61.12;101234.16;5014752;28;45650;-61
2023/04/11 04:55:50;;;;;;;;;4.00;1.00;;;;;11.49;61.06;101201.38;5024010;28;45096;-61
2023/04/11 04:58:15;;;;;;;;;1.00;1.00;;;;;11.65;61.92;101234.88;5030647;28;53996;-62
2023/04/11 05:00:41;;;;;;;;;5.00;2.50;;;;;11.70;62.05;101254.66;5017972;28;44745;-61
2023/04/11 05:03:07;;;;;;;;;3.25;1.00;;;;;11.71;62.21;101239.47;5028141;28;45216;-63
2023/04/11 05:05:32;;;;;;;;;2.00;0.75;;;;;11.70;61.50;101232.34;5032026;28;45630;-63
2023/04/11 05:07:58;;;;;;;;;3.50;2.00;;;;;11.78;61.25;101244.19;5029837;28;45090;-63
2023/04/11 05:10:23;;;;;;;;;3.00;1.25;;;;;11.74;61.29;101231.53;5028495;28;45509;-64
2023/04/11 05:12:49;;;;;;;;;0.00;0.00;;;;;11.86;61.56;101249.72;5033187;28;44871;-61
2023/04/11 05:15:14;;;;;;;;;4.00;2.25;;;;;11.83;61.02;101260.34;5031015;28;45744;-64
2023/04/11 05:17:39;;;;;;;;;1.50;1.50;;;;;11.80;61.60;101258.50;5021408;28;45436;-61
2023/04/11 05:20:07;;;;;;;;;3.00;3.00;;;;;11.83;61.36;101263.94;5015665;28;45482;-63
2023/04/11 05:22:33;;;;;;;;;1.00;1.00;;;;;11.70;61.73;101243.94;5015683;28;45464;-60
2023/04/11 05:24:59;;;;;;;;;7.25;2.25;;;;;11.84;62.13;101271.09;5015116;28;46270;-62
2023/04/11 05:27:25;;;;;;;;;2.50;2.00;;;;;11.85;61.56;101272.94;5014407;28;46100;-62
2023/04/11 05:29:53;;;;;;;;;5.50;2.00;;;;;11.79;61.36;101272.75;5015073;28;45499;-61
2023/04/11 05:32:18;;;;;;;;;2.67;1.00;;;;;11.75;62.17;101252.09;5015484;28;45423;-61
2023/04/11 05:34:52;;;;;;;;;1.25;1.25;;;;;11.81;61.82;101260.28;5013966;28;46502;-63
2023/04/11 05:37:17;;;;;;;;;0.00;0.00;;;;;11.80;62.27;101251.38;5016110;28;45707;-62
2023/04/11 05:39:42;;;;;;;;;1.67;1.00;;;;;11.82;60.84;101263.91;5014599;28;45564;-62
2023/04/11 05:42:08;;;;;;;;;1.75;1.00;;;;;11.75;61.38;101265.50;5017130;28;45306;-65
2023/04/11 05:44:33;;;;;;;;;2.00;1.00;;;;;11.67;62.03;101262.56;5016496;28;46440;-62
2023/04/11 05:46:59;;;;;;;;;4.00;1.00;;;;;11.69;61.41;101270.66;5018092;28;45371;-62
2023/04/11 05:49:24;;;;;;;;;5.00;1.00;;;;;11.68;61.94;101264.41;5015263;28;45308;-63
2023/04/11 05:51:49;;;;;;;;;3.00;1.50;;;;;11.69;62.08;101268.88;5015440;28;45214;-63
2023/04/11 05:54:32;;;;;;;;;2.00;2.00;;;;;11.70;62.52;101275.16;5014883;28;45448;-62
2023/04/11 05:56:57;;;;;;;;;2.75;2.75;;;;;11.66;61.79;101255.41;5014265;28;45638;-63
2023/04/11 05:59:22;;;;;;;;;2.00;2.00;;;;;11.69;62.05;101270.66;5015155;28;45335;-62
2023/04/11 06:01:49;;;;;;;;;4.75;1.75;;;;;11.76;62.38;101281.59;5015383;28;45344;-62
2023/04/11 06:04:15;;;;;;;;;5.25;2.00;;;;;11.81;61.40;101273.69;5015962;28;47633;-62
2023/04/11 06:06:42;;;;;;;;;6.75;4.00;;;;;11.80;61.35;101277.25;5014272;28;49863;-61
2023/04/11 06:09:08;;;;;;;;;6.50;3.75;;;;;11.83;61.64;101280.00;5016188;28;45497;-61
2023/04/11 06:11:34;;;;;;;;;3.00;1.75;;;;;11.85;61.48;101278.28;5014734;28;45502;-61
2023/04/11 06:13:59;;;;;;;;;4.00;2.50;;;;;11.89;61.85;101287.31;5005619;28;47391;-62
2023/04/11 06:16:25;;;;;;;;;6.00;2.00;;;;;11.78;60.93;101268.25;5014056;28;45545;-62
2023/04/11 06:18:50;;;;;;;;;6.00;3.25;;;;;11.86;61.48;101285.44;5014013;28;45798;-62
2023/04/11 06:21:15;;;;;;;;;7.50;3.00;;;;;11.96;61.13;101294.69;5013551;28;45453;-62
2023/04/11 06:23:41;;;;;;;;;6.50;3.00;;;;;11.97;61.15;101291.16;5012590;28;61581;-62
2023/04/11 06:26:06;;;;;;;;;6.75;3.00;;;;;12.03;61.10;101295.75;5014267;28;45507;-64
2023/04/11 06:28:31;;;;;;;;;5.75;1.50;;;;;11.58;60.35;101231.09;5013665;28;45972;-63
2023/04/11 06:30:57;;;;;;;;;3.50;1.75;;;;;11.80;60.98;101253.16;5013930;28;45385;-63
2023/04/11 06:33:22;;;;;;;;;4.00;1.00;;;;;12.06;60.32;101309.25;5031613;22;51391;-59
2023/04/11 06:35:48;;;;;;;;;7.00;3.00;;;;;12.08;60.52;101307.56;5013358;28;45595;-60
2023/04/11 06:38:14;;;;;;;;;5.50;2.00;;;;;12.09;60.38;101315.63;5007625;28;45611;-60
2023/04/11 06:40:40;;;;;;;;;5.75;3.50;;;;;12.11;59.94;101310.28;5012830;28;45282;-62
2023/04/11 06:43:05;;;;;;;;;7.50;4.50;;;;;12.15;60.55;101314.88;5014566;28;45871;-60
2023/04/11 06:45:30;;;;;;;;;4.00;2.67;;;;;12.03;60.18;101272.59;5011744;28;50531;-60
2023/04/11 06:47:56;;;;;;;;;4.00;3.00;;;;;12.26;60.32;101310.75;5014503;28;45434;-60
2023/04/11 06:50:21;;;;;;;;;5.75;3.00;;;;;12.15;59.36;101283.66;5013853;28;45497;-63
2023/04/11 06:52:47;;;;;;;;;9.75;2.00;;;;;12.29;59.37;101323.31;5014352;28;46324;-61
2023/04/11 06:55:14;;;;;;;;;4.00;3.50;;;;;12.30;59.55;101320.69;5015330;28;45596;-59
2023/04/11 06:57:40;;;;;;;;;5.00;1.00;;;;;12.32;60.31;101318.97;5016895;28;45485;-62
2023/04/11 07:00:06;;;;;;;;;8.33;1.00;;;;;12.16;59.06;101301.53;5014509;28;45457;-60
2023/04/11 07:02:34;;;;;;;;;6.50;3.00;;;;;12.28;59.90;101314.38;5013271;28;46201;-60
2023/04/11 07:05:00;;;;;;;;;2.50;1.75;;;;;12.31;60.08;101326.97;5012919;28;45608;-60
2023/04/11 07:07:26;;;;;;;;;5.00;3.00;;;;;12.28;59.95;101332.22;5014659;28;45638;-60
2023/04/11 07:09:52;;;;;;;;;5.00;5.00;;;;;12.31;59.63;101325.19;5013803;28;45566;-59
2023/04/11 07:12:17;;;;;;;;;3.25;1.50;;;;;12.41;59.25;101338.84;5013706;28;47667;-61
2023/04/11 07:14:42;;;;;;;;;2.50;1.75;;;;;12.43;59.32;101338.00;5013573;28;45466;-61
2023/04/11 07:17:08;;;;;;;;;7.25;4.75;;;;;12.50;58.87;101347.13;5013594;28;45504;-61
2023/04/11 07:19:33;;;;;;;;;5.00;2.00;;;;;12.45;59.52;101338.06;5013362;28;45284;-60
2023/04/11 07:21:59;;;;;;;;;5.00;2.00;;;;;12.44;59.62;101334.47;5013343;28;46247;-61
2023/04/11 07:24:24;;;;;;;;;3.33;2.00;;;;;12.50;59.43;101344.44;5013358;28;45439;-58
2023/04/11 07:26:50;;;;;;;;;5.75;3.00;;;;;12.54;58.35;101335.66;5013105;28;45424;-60
2023/04/11 07:29:16;;;;;;;;;9.50;4.50;;;;;12.52;59.25;101323.94;5014125;28;45588;-60
2023/04/11 07:31:43;;;;;;;;;7.25;4.00;;;;;11.91;58.68;101219.59;5013399;28;45411;-61
2023/04/11 07:34:09;;;;;;;;;6.50;4.00;;;;;12.65;58.53;101327.88;5012273;28;45467;-61
2023/04/11 07:36:34;;;;;;;;;3.25;2.00;;;;;12.54;58.65;101306.16;5014058;28;45412;-59
2023/04/11 07:39:00;;;;;;;;;5.67;3.00;;;;;12.66;58.18;101325.25;5015514;28;45515;-62
2023/04/11 07:41:25;;;;;;;;;3.25;2.25;;;;;12.66;57.98;101324.34;5016731;28;45254;-60
2023/04/11 07:43:50;;;;;;;;;8.50;4.50;;;;;12.76;58.51;101336.22;5016339;28;45408;-60
2023/04/11 07:46:16;;;;;;;;;6.50;3.00;;;;;12.71;57.79;101320.91;5016811;28;45461;-59
2023/04/11 07:48:42;;;;;;;;;5.00;2.00;;;;;12.75;58.37;101312.97;5016870;28;45574;-60
2023/04/11 07:51:07;;;;;;;;;6.33;4.00;;;;;12.86;57.78;101331.13;5017172;28;45487;-60
2023/04/11 07:53:33;;;;;;;;;6.25;5.00;;;;;12.81;57.68;101318.50;5016503;28;45426;-61
2023/04/11 07:55:58;;;;;;;;;6.00;1.00;;;;;12.95;56.94;101313.47;5016218;28;45501;-59
2023/04/11 07:58:24;;;;;;;;;3.00;2.25;;;;;12.89;57.04;101296.34;5014988;28;45565;-61
2023/04/11 08:00:49;;;;;;;;;5.25;3.75;;;;;12.89;57.18;101288.31;5016374;28;46353;-61
2023/04/11 08:03:15;;;;;;;;;5.75;2.50;;;;;12.96;57.41;101300.09;5016405;28;45528;-61
2023/04/11 08:05:41;;;;;;;;;3.50;2.50;;;;;12.85;56.96;101278.41;5017009;28;45862;-60
2023/04/11 08:08:06;;;;;;;;;7.50;3.25;;;;;13.04;57.79;101324.44;5012361;28;45534;-61
2023/04/11 08:10:32;;;;;;;;;4.67;2.00;;;;;13.14;57.00;101317.53;5005566;28;46069;-61
2023/04/11 08:12:58;;;;;;;;;4.00;4.00;;;;;13.19;57.06;101329.28;5008692;28;45558;-61
2023/04/11 08:15:24;;;;;;;;;5.33;3.00;;;;;13.03;55.98;101291.38;5010702;28;45376;-62
2023/04/11 08:17:50;;;;;;;;;3.33;2.00;;;;;13.19;56.77;101323.94;5005771;28;45582;-61
2023/04/11 08:20:17;;;;;;;;;7.00;2.00;;;;;13.25;56.31;101334.81;5012618;28;45484;-62
2023/04/11 08:22:45;;;;;;;;;4.33;3.00;;;;;13.22;55.66;101327.59;5010975;28;45574;-62
2023/04/11 08:25:12;;;;;;;;;8.67;2.00;;;;;13.31;55.60;101337.63;5016209;28;45513;-61
2023/04/11 08:27:38;;;;;;;;;3.67;2.00;;;;;13.26;55.65;101318.75;5017799;28;45568;-63
2023/04/11 08:30:05;;;;;;;;;3.33;2.67;;;;;13.34;55.62;101323.44;5017053;28;45564;-61
2023/04/11 08:32:31;;;;;;;;;2.67;1.33;;;;;13.36;55.80;101325.25;5017182;28;45929;-60
2023/04/11 08:34:56;;;;;;;;;6.00;2.00;;;;;13.44;55.57;101329.03;5016524;28;46379;-61
2023/04/11 08:37:22;;;;;;;;;1.00;1.00;;;;;13.42;54.45;101325.41;5019897;28;46117;-61
2023/04/11 08:39:47;;;;;;;;;2.00;2.00;;;;;13.42;54.86;101336.16;5015300;28;46214;-60
2023/04/11 08:42:27;;;;;;;;;2.00;1.00;;;;;13.45;54.65;101330.88;5018906;28;45427;-61
2023/04/11 08:45:01;;;;;;;;;2.00;2.00;;;;;13.47;54.91;101332.69;5014723;28;45837;-61
2023/04/11 08:47:26;;;;;;;;;5.25;3.00;;;;;13.41;54.53;101329.00;5018868;28;45641;-61
2023/04/11 08:49:52;;;;;;;;;6.00;2.67;;;;;13.47;54.21;101328.22;5013832;28;45975;-63
2023/04/11 08:52:18;;;;;;;;;4.75;4.00;;;;;13.51;54.53;101332.78;5013708;28;45442;-59
2023/04/11 08:54:45;;;;;;;;;2.00;1.00;;;;;13.52;54.57;101333.72;5013768;28;45647;-62
2023/04/11 08:57:20;;;;;;;;;5.33;2.00;;;;;13.53;54.61;101339.13;5015835;28;45778;-63
2023/04/11 08:59:52;;;;;;;;;3.25;2.00;;;;;13.60;54.22;101348.22;5011286;28;45492;-60
2023/04/11 09:02:18;;;;;;;;;2.00;2.00;;;;;13.61;53.71;101353.63;5017221;28;45491;-61
2023/04/11 09:04:43;;;;;;;;;6.00;3.33;;;;;13.60;54.48;101341.06;5015619;28;45250;-61
2023/04/11 09:07:10;;;;;;;;;4.33;4.00;;;;;13.60;54.23;101326.75;5015587;28;45671;-61
2023/04/11 09:09:36;;;;;;;;;5.67;4.00;;;;;13.72;53.62;101323.41;5013662;28;46247;-60
2023/04/11 09:12:03;;;;;;;;;2.00;1.00;;;;;13.84;54.00;101329.06;5011748;28;45637;-61
2023/04/11 09:14:29;;;;;;;;;3.33;2.00;;;;;13.89;53.34;101337.22;5013722;28;45566;-62
2023/04/11 09:17:00;;;;;;;;;2.33;2.33;;;;;13.87;53.08;101312.13;5015977;28;45551;-61
2023/04/11 09:19:31;;;;;;;;;2.00;2.00;;;;;14.06;52.79;101334.94;5014618;28;45846;-61
2023/04/11 09:22:01;;;;;;;;;5.00;5.00;;;;;14.04;52.24;101317.84;5013296;28;45481;-61
2023/04/11 09:24:28;;;;;;;;;4.00;3.33;;;;;14.14;51.71;101333.31;5014924;28;45533;-62
2023/04/11 09:27:15;;;;;;;;;7.00;4.67;;;;;14.16;51.69;101336.94;5006913;28;45514;-61
2023/04/11 09:29:47;;;;;;;;;4.33;3.00;;;;;14.11;51.70;101327.88;5014090;28;47233;-62
2023/04/11 09:32:26;;;;;;;;;4.00;2.00;;;;;14.14;51.16;101334.22;5015554;28;45509;-60
2023/04/11 09:35:15;;;;;;;;;8.25;5.00;;;;;14.16;51.50;101315.44;5016766;28;45453;-61
2023/04/11 09:37:43;;;;;;;;;4.33;3.00;;;;;14.31;50.66;101326.47;5014371;28;45411;-61
2023/04/11 09:40:10;;;;;;;;;2.00;2.00;;;;;14.36;49.83;101326.59;5014077;28;46137;-62
2023/04/11 09:42:35;;;;;;;;;5.00;1.00;;;;;14.27;49.89;101311.19;5017309;28;45363;-62
2023/04/11 09:45:02;;;;;;;;;4.00;2.33;;;;;14.40;49.74;101325.75;5014886;28;45407;-61
2023/04/11 09:47:33;;;;;;;;;8.67;4.00;;;;;14.43;49.59;101320.44;5010010;28;45419;-62
2023/04/11 09:49:59;;;;;;;;;4.00;3.00;;;;;14.48;49.92;101316.06;5012745;28;46174;-60
2023/04/11 09:52:26;;;;;;;;;4.33;4.00;;;;;14.57;49.34;101318.94;5014513;28;45944;-61
2023/04/11 09:54:52;;;;;;;;;3.33;3.00;;;;;14.57;49.33;101324.31;5008540;28;45514;-61
2023/04/11 09:57:21;;;;;;;;;4.00;4.00;;;;;14.54;48.54;101326.03;5014151;28;45521;-61
2023/04/11 09:59:47;;;;;;;;;2.67;2.67;;;;;14.55;48.88;101322.47;4993410;28;46962;-61
2023/04/11 10:02:13;;;;;;;;;5.00;2.67;;;;;14.40;48.57;101289.91;5013733;28;45661;-61
2023/04/11 10:04:39;;;;;;;;;2.00;1.00;;;;;14.58;47.83;101319.84;5014827;28;45385;-61
2023/04/11 10:07:15;;;;;;;;;4.67;3.33;;;;;14.65;48.25;101329.88;5013665;28;45496;-61
2023/04/11 10:09:44;;;;;;;;;2.00;1.00;;;;;14.54;47.96;101302.75;5009207;28;46116;-61
2023/04/11 10:12:09;;;;;;;;;2.00;1.67;;;;;14.77;47.60;101341.75;5011608;28;45511;-61
2023/04/11 10:14:37;;;;;;;;;5.33;4.33;;;;;14.79;47.42;101337.31;5014961;28;45321;-61
2023/04/11 10:17:21;;;;;;;;;4.00;1.00;;;;;14.85;47.06;101332.94;5009664;28;45525;-60
2023/04/11 10:19:48;;;;;;;;;2.33;1.00;;;;;14.91;46.75;101327.69;5014212;28;45458;-62
2023/04/11 10:22:45;;;;;;;;;3.33;2.00;;;;;14.86;46.95;101313.22;5013061;28;45712;-62
2023/04/11 10:25:14;;;;;;;;;3.00;2.00;;;;;14.88;47.22;101313.25;5015221;28;45574;-61
2023/04/11 10:28:05;;;;;;;;;3.33;3.33;;;;;14.89;47.02;101301.63;5016291;28;45601;-62
2023/04/11 10:30:57;;;;;;;;;7.00;5.33;;;;;14.96;46.70;101300.81;5011005;28;46456;-61
2023/04/11 10:33:25;;;;;;;;;4.00;1.00;;;;;14.93;46.30;101309.78;5008428;28;45476;-61
2023/04/11 10:36:11;;;;;;;;;2.67;2.33;;;;;15.01;46.06;101306.28;5015026;28;45700;-61
2023/04/11 10:38:39;;;;;;;;;3.67;2.33;;;;;15.06;46.37;101312.66;5014901;28;45513;-61
2023/04/11 10:41:30;;;;;;;;;5.67;4.00;;;;;15.10;45.78;101299.28;5014767;28;46024;-61
2023/04/11 10:44:14;;;;;;;;;6.33;1.67;;;;;15.22;44.70;101300.38;5015077;28;45488;-61
2023/04/11 10:46:52;;;;;;;;;4.00;2.00;;;;;15.23;45.15;101286.03;5014347;28;45453;-61
2023/04/11 10:49:38;;;;;;;;;2.67;2.00;;;;;15.20;44.73;101259.97;5016600;28;45630;-62
2023/04/11 10:52:23;;;;;;;;;7.00;4.00;;;;;15.23;44.52;101267.19;5010792;28;45482;-61
2023/04/11 10:54:53;;;;;;;;;1.67;1.67;;;;;15.44;44.44;101285.44;5012905;28;45512;-61
2023/04/11 10:57:20;;;;;;;;;4.33;2.33;;;;;15.55;44.34;101286.50;5013805;28;45671;-62
2023/04/11 10:59:48;;;;;;;;;0.67;0.67;;;;;15.57;44.50;101282.03;5014253;28;45411;-61
2023/04/11 11:02:15;;;;;;;;;3.00;2.33;;;;;15.62;45.21;101293.81;5013158;28;45503;-61
2023/04/11 11:04:41;;;;;;;;;9.67;7.00;;;;;15.70;45.25;101280.44;5011071;28;45510;-62
2023/04/11 11:07:12;;;;;;;;;9.67;3.33;;;;;15.66;44.91;101257.06;5013613;28;45612;-60
2023/04/11 11:09:37;;;;;;;;;5.67;4.33;;;;;15.79;45.25;101250.97;5014590;28;45280;-62
2023/04/11 11:12:11;;;;;;;;;5.67;4.33;;;;;15.94;45.05;101250.25;5013694;28;45600;-60
2023/04/11 11:14:40;;;;;;;;;6.67;5.00;;;;;16.02;44.58;101244.97;5013434;28;45649;-62
2023/04/11 11:17:07;;;;;;;;;8.67;4.67;;;;;16.00;43.71;101218.00;5013541;28;45424;-60
2023/04/11 11:19:34;;;;;;;;;7.67;5.00;;;;;16.12;44.16;101228.00;5006802;28;45417;-64
2023/04/11 11:22:03;;;;;;;;;9.67;2.00;;;;;16.05;42.16;101234.19;5009188;28;46727;-62
2023/04/11 11:24:29;;;;;;;;;6.33;3.33;;;;;15.95;42.65;101198.16;5014126;28;45648;-61